sensor_id;sensor_type;location;lat;lon;timestamp;temperature;humidity
76120;DHT22;64852;48.092;-1.640;2023-11-19T00:00:16;15.00;99.90
76120;DHT22;64852;48.092;-1.640;2023-11-19T00:02:42;15.00;99.90
76120;DHT22;64852;48.092;-1.640;2023-11-19T00:05:07;15.40;99.90
76120;DHT22;64852;48.092;-1.640;2023-11-19T00:07:39;14.90;99.90
76120;DHT22;64852;48.092;-1.640;2023-11-19T00:10:07;15.00;99.90
76120;DHT22;64852;48.092;-1.640;2023-11-19T00:12:36;14.90;99.90
76120;DHT22;64852;48.092;-1.640;2023-11-19T00:15:02;14.90;99.90
76120;DHT22;64852;48.092;-1.640;2023-11-19T00:17:27;15.00;99.90
76120;DHT22;64852;48.092;-1.640;2023-11-19T00:19:53;15.00;99.90
76120;DHT22;64852;48.092;-1.640;2023-11-19T00:22:18;15.60;99.90
76120;DHT22;64852;48.092;-1.640;2023-11-19T00:24:46;15.00;99.90
76120;DHT22;64852;48.092;-1.640;2023-11-19T00:27:12;14.90;99.90
76120;DHT22;64852;48.092;-1.640;2023-11-19T00:29:37;14.90;99.90
76120;DHT22;64852;48.092;-1.640;2023-11-19T00:32:03;14.70;99.90
76120;DHT22;64852;48.092;-1.640;2023-11-19T00:34:30;14.80;99.90
76120;DHT22;64852;48.092;-1.640;2023-11-19T00:36:56;15.60;99.90
76120;DHT22;64852;48.092;-1.640;2023-11-19T00:39:21;15.20;99.90
76120;DHT22;64852;48.092;-1.640;2023-11-19T00:41:47;15.40;99.90
76120;DHT22;64852;48.092;-1.640;2023-11-19T00:44:13;14.50;99.90
76120;DHT22;64852;48.092;-1.640;2023-11-19T00:46:39;14.70;99.90
76120;DHT22;64852;48.092;-1.640;2023-11-19T00:49:05;15.60;99.90
76120;DHT22;64852;48.092;-1.640;2023-11-19T00:51:30;15.40;99.90
76120;DHT22;64852;48.092;-1.640;2023-11-19T00:53:57;14.60;99.90
76120;DHT22;64852;48.092;-1.640;2023-11-19T00:56:22;14.50;99.90
76120;DHT22;64852;48.092;-1.640;2023-11-19T00:58:48;15.40;99.90
76120;DHT22;64852;48.092;-1.640;2023-11-19T01:01:13;14.60;99.90
76120;DHT22;64852;48.092;-1.640;2023-11-19T01:03:39;15.00;99.90
76120;DHT22;64852;48.092;-1.640;2023-11-19T01:06:05;14.60;99.90
76120;DHT22;64852;48.092;-1.640;2023-11-19T01:08:30;14.50;99.90
76120;DHT22;64852;48.092;-1.640;2023-11-19T01:10:56;14.50;99.90
76120;DHT22;64852;48.092;-1.640;2023-11-19T01:13:21;14.50;99.90
76120;DHT22;64852;48.092;-1.640;2023-11-19T01:15:47;14.50;99.90
76120;DHT22;64852;48.092;-1.640;2023-11-19T01:18:13;14.70;99.90
76120;DHT22;64852;48.092;-1.640;2023-11-19T01:20:38;15.10;99.90
76120;DHT22;64852;48.092;-1.640;2023-11-19T01:23:04;14.50;99.90
76120;DHT22;64852;48.092;-1.640;2023-11-19T01:25:29;15.50;99.90
76120;DHT22;64852;48.092;-1.640;2023-11-19T01:27:55;14.30;99.90
76120;DHT22;64852;48.092;-1.640;2023-11-19T01:30:24;14.30;99.90
76120;DHT22;64852;48.092;-1.640;2023-11-19T01:32:49;14.30;99.90
76120;DHT22;64852;48.092;-1.640;2023-11-19T01:35:15;14.60;99.90
76120;DHT22;64852;48.092;-1.640;2023-11-19T01:37:40;14.40;99.90
76120;DHT22;64852;48.092;-1.640;2023-11-19T01:40:06;14.50;99.90
76120;DHT22;64852;48.092;-1.640;2023-11-19T01:42:37;14.40;99.90
76120;DHT22;64852;48.092;-1.640;2023-11-19T01:45:03;14.40;99.90
76120;DHT22;64852;48.092;-1.640;2023-11-19T01:47:32;14.30;99.90
76120;DHT22;64852;48.092;-1.640;2023-11-19T01:49:58;14.30;99.90
76120;DHT22;64852;48.092;-1.640;2023-11-19T01:52:24;15.10;99.90
76120;DHT22;64852;48.092;-1.640;2023-11-19T01:54:50;14.40;99.90
76120;DHT22;64852;48.092;-1.640;2023-11-19T01:57:16;14.90;99.90
76120;DHT22;64852;48.092;-1.640;2023-11-19T01:59:42;14.80;99.90
76120;DHT22;64852;48.092;-1.640;2023-11-19T02:02:08;14.40;99.90
76120;DHT22;64852;48.092;-1.640;2023-11-19T02:04:34;14.30;99.90
76120;DHT22;64852;48.092;-1.640;2023-11-19T02:07:00;14.30;99.90
76120;DHT22;64852;48.092;-1.640;2023-11-19T02:09:25;14.20;99.90
76120;DHT22;64852;48.092;-1.640;2023-11-19T02:11:52;15.20;99.90
76120;DHT22;64852;48.092;-1.640;2023-11-19T02:14:19;14.20;99.90
76120;DHT22;64852;48.092;-1.640;2023-11-19T02:16:47;14.90;99.90
76120;DHT22;64852;48.092;-1.640;2023-11-19T02:19:12;14.10;99.90
76120;DHT22;64852;48.092;-1.640;2023-11-19T02:21:38;14.10;99.90
76120;DHT22;64852;48.092;-1.640;2023-11-19T02:24:04;14.50;99.90
76120;DHT22;64852;48.092;-1.640;2023-11-19T02:26:38;14.00;99.90
76120;DHT22;64852;48.092;-1.640;2023-11-19T02:29:04;13.90;99.90
76120;DHT22;64852;48.092;-1.640;2023-11-19T02:31:32;13.90;99.90
76120;DHT22;64852;48.092;-1.640;2023-11-19T02:33:57;14.10;99.90
76120;DHT22;64852;48.092;-1.640;2023-11-19T02:36:22;14.40;99.90
76120;DHT22;64852;48.092;-1.640;2023-11-19T02:38:48;14.40;99.90
76120;DHT22;64852;48.092;-1.640;2023-11-19T02:41:13;14.30;99.90
76120;DHT22;64852;48.092;-1.640;2023-11-19T02:43:39;14.10;99.90
76120;DHT22;64852;48.092;-1.640;2023-11-19T02:46:05;14.60;99.90
76120;DHT22;64852;48.092;-1.640;2023-11-19T02:48:37;13.80;99.90
76120;DHT22;64852;48.092;-1.640;2023-11-19T02:51:02;13.70;99.90
76120;DHT22;64852;48.092;-1.640;2023-11-19T02:53:29;13.80;99.90
76120;DHT22;64852;48.092;-1.640;2023-11-19T02:55:54;14.30;99.90
76120;DHT22;64852;48.092;-1.640;2023-11-19T02:58:27;13.70;99.90
76120;DHT22;64852;48.092;-1.640;2023-11-19T03:00:53;14.10;99.90
76120;DHT22;64852;48.092;-1.640;2023-11-19T03:03:34;13.60;99.90
76120;DHT22;64852;48.092;-1.640;2023-11-19T03:06:06;14.20;99.90
76120;DHT22;64852;48.092;-1.640;2023-11-19T03:08:33;13.70;99.90
76120;DHT22;64852;48.092;-1.640;2023-11-19T03:10:58;13.70;99.90
76120;DHT22;64852;48.092;-1.640;2023-11-19T03:13:24;14.30;99.90
76120;DHT22;64852;48.092;-1.640;2023-11-19T03:15:49;13.50;99.90
76120;DHT22;64852;48.092;-1.640;2023-11-19T03:18:15;13.60;99.90
76120;DHT22;64852;48.092;-1.640;2023-11-19T03:20:40;13.60;99.90
76120;DHT22;64852;48.092;-1.640;2023-11-19T03:23:06;13.90;99.90
76120;DHT22;64852;48.092;-1.640;2023-11-19T03:25:32;14.10;99.90
76120;DHT22;64852;48.092;-1.640;2023-11-19T03:28:02;13.60;99.90
76120;DHT22;64852;48.092;-1.640;2023-11-19T03:30:28;13.30;99.90
76120;DHT22;64852;48.092;-1.640;2023-11-19T03:32:54;13.40;99.90
76120;DHT22;64852;48.092;-1.640;2023-11-19T03:35:19;13.80;99.90
76120;DHT22;64852;48.092;-1.640;2023-11-19T03:37:45;13.30;99.90
76120;DHT22;64852;48.092;-1.640;2023-11-19T03:40:10;14.30;99.90
76120;DHT22;64852;48.092;-1.640;2023-11-19T03:42:36;13.30;99.90
76120;DHT22;64852;48.092;-1.640;2023-11-19T03:45:01;14.10;99.90
76120;DHT22;64852;48.092;-1.640;2023-11-19T03:47:29;13.10;99.90
76120;DHT22;64852;48.092;-1.640;2023-11-19T03:49:54;13.30;99.90
76120;DHT22;64852;48.092;-1.640;2023-11-19T03:52:20;13.20;99.90
76120;DHT22;64852;48.092;-1.640;2023-11-19T03:54:45;13.20;99.90
76120;DHT22;64852;48.092;-1.640;2023-11-19T03:57:11;13.20;99.90
76120;DHT22;64852;48.092;-1.640;2023-11-19T03:59:37;13.10;99.90
76120;DHT22;64852;48.092;-1.640;2023-11-19T04:02:03;13.10;99.90
76120;DHT22;64852;48.092;-1.640;2023-11-19T04:04:28;13.00;99.90
76120;DHT22;64852;48.092;-1.640;2023-11-19T04:06:57;13.90;99.90
76120;DHT22;64852;48.092;-1.640;2023-11-19T04:09:23;13.00;99.90
76120;DHT22;64852;48.092;-1.640;2023-11-19T04:11:49;13.60;99.90
76120;DHT22;64852;48.092;-1.640;2023-11-19T04:14:14;13.00;99.90
76120;DHT22;64852;48.092;-1.640;2023-11-19T04:16:40;13.00;99.90
76120;DHT22;64852;48.092;-1.640;2023-11-19T04:19:06;13.60;99.90
76120;DHT22;64852;48.092;-1.640;2023-11-19T04:21:32;12.90;99.90
76120;DHT22;64852;48.092;-1.640;2023-11-19T04:23:57;12.90;99.90
76120;DHT22;64852;48.092;-1.640;2023-11-19T04:26:23;13.20;99.90
76120;DHT22;64852;48.092;-1.640;2023-11-19T04:28:48;13.60;99.90
76120;DHT22;64852;48.092;-1.640;2023-11-19T04:31:17;12.80;99.90
76120;DHT22;64852;48.092;-1.640;2023-11-19T04:33:43;12.90;99.90
76120;DHT22;64852;48.092;-1.640;2023-11-19T04:36:09;13.60;99.90
76120;DHT22;64852;48.092;-1.640;2023-11-19T04:38:34;12.90;99.90
76120;DHT22;64852;48.092;-1.640;2023-11-19T04:41:00;13.00;99.90
76120;DHT22;64852;48.092;-1.640;2023-11-19T04:43:25;12.90;99.90
76120;DHT22;64852;48.092;-1.640;2023-11-19T04:45:51;12.80;99.90
76120;DHT22;64852;48.092;-1.640;2023-11-19T04:48:16;12.90;99.90
76120;DHT22;64852;48.092;-1.640;2023-11-19T04:50:42;12.90;99.90
76120;DHT22;64852;48.092;-1.640;2023-11-19T04:53:07;13.90;99.90
76120;DHT22;64852;48.092;-1.640;2023-11-19T04:55:33;13.40;99.90
76120;DHT22;64852;48.092;-1.640;2023-11-19T04:57:58;12.90;99.90
76120;DHT22;64852;48.092;-1.640;2023-11-19T05:00:24;13.30;99.90
76120;DHT22;64852;48.092;-1.640;2023-11-19T05:02:49;12.70;99.90
76120;DHT22;64852;48.092;-1.640;2023-11-19T05:05:15;13.20;99.90
76120;DHT22;64852;48.092;-1.640;2023-11-19T05:07:41;13.40;99.90
76120;DHT22;64852;48.092;-1.640;2023-11-19T05:10:07;13.50;99.90
76120;DHT22;64852;48.092;-1.640;2023-11-19T05:12:32;12.80;99.90
76120;DHT22;64852;48.092;-1.640;2023-11-19T05:14:58;13.30;99.90
76120;DHT22;64852;48.092;-1.640;2023-11-19T05:17:23;12.70;99.90
76120;DHT22;64852;48.092;-1.640;2023-11-19T05:19:49;12.90;99.90
76120;DHT22;64852;48.092;-1.640;2023-11-19T05:22:14;12.90;99.90
76120;DHT22;64852;48.092;-1.640;2023-11-19T05:24:40;12.20;99.90
76120;DHT22;64852;48.092;-1.640;2023-11-19T05:27:06;12.80;99.90
76120;DHT22;64852;48.092;-1.640;2023-11-19T05:29:33;12.80;99.90
76120;DHT22;64852;48.092;-1.640;2023-11-19T05:31:59;12.70;99.90
76120;DHT22;64852;48.092;-1.640;2023-11-19T05:34:24;12.80;99.90
76120;DHT22;64852;48.092;-1.640;2023-11-19T05:36:50;12.90;99.90
76120;DHT22;64852;48.092;-1.640;2023-11-19T05:39:16;13.00;99.90
76120;DHT22;64852;48.092;-1.640;2023-11-19T05:41:42;13.10;99.90
76120;DHT22;64852;48.092;-1.640;2023-11-19T05:44:07;13.00;99.90
76120;DHT22;64852;48.092;-1.640;2023-11-19T05:46:33;13.00;99.90
76120;DHT22;64852;48.092;-1.640;2023-11-19T05:48:58;13.00;99.90
76120;DHT22;64852;48.092;-1.640;2023-11-19T05:51:24;13.00;99.90
76120;DHT22;64852;48.092;-1.640;2023-11-19T05:53:50;12.90;99.90
76120;DHT22;64852;48.092;-1.640;2023-11-19T05:56:15;12.90;99.90
76120;DHT22;64852;48.092;-1.640;2023-11-19T05:58:46;13.80;99.90
76120;DHT22;64852;48.092;-1.640;2023-11-19T06:01:13;12.70;99.90
76120;DHT22;64852;48.092;-1.640;2023-11-19T06:03:39;13.40;99.90
76120;DHT22;64852;48.092;-1.640;2023-11-19T06:06:04;12.70;99.90
76120;DHT22;64852;48.092;-1.640;2023-11-19T06:08:30;12.60;99.90
76120;DHT22;64852;48.092;-1.640;2023-11-19T06:10:56;12.70;99.90
76120;DHT22;64852;48.092;-1.640;2023-11-19T06:13:22;12.60;99.90
76120;DHT22;64852;48.092;-1.640;2023-11-19T06:15:47;13.20;99.90
76120;DHT22;64852;48.092;-1.640;2023-11-19T06:18:13;13.00;99.90
76120;DHT22;64852;48.092;-1.640;2023-11-19T06:20:40;13.30;99.90
76120;DHT22;64852;48.092;-1.640;2023-11-19T06:23:06;12.80;99.90
76120;DHT22;64852;48.092;-1.640;2023-11-19T06:25:32;12.80;99.90
76120;DHT22;64852;48.092;-1.640;2023-11-19T06:27:58;13.00;99.90
76120;DHT22;64852;48.092;-1.640;2023-11-19T06:30:24;13.00;99.90
76120;DHT22;64852;48.092;-1.640;2023-11-19T06:32:49;12.90;99.90
76120;DHT22;64852;48.092;-1.640;2023-11-19T06:35:15;13.70;99.90
76120;DHT22;64852;48.092;-1.640;2023-11-19T06:37:40;12.90;99.90
76120;DHT22;64852;48.092;-1.640;2023-11-19T06:40:07;12.90;99.90
76120;DHT22;64852;48.092;-1.640;2023-11-19T06:42:34;12.90;99.90
76120;DHT22;64852;48.092;-1.640;2023-11-19T06:45:00;13.60;99.90
76120;DHT22;64852;48.092;-1.640;2023-11-19T06:47:26;13.00;99.90
76120;DHT22;64852;48.092;-1.640;2023-11-19T06:49:52;13.30;99.90
76120;DHT22;64852;48.092;-1.640;2023-11-19T06:52:17;13.00;99.90
76120;DHT22;64852;48.092;-1.640;2023-11-19T06:54:43;12.80;99.90
76120;DHT22;64852;48.092;-1.640;2023-11-19T06:57:10;13.20;99.90
76120;DHT22;64852;48.092;-1.640;2023-11-19T06:59:36;12.70;99.90
76120;DHT22;64852;48.092;-1.640;2023-11-19T07:02:02;12.70;99.90
76120;DHT22;64852;48.092;-1.640;2023-11-19T07:04:28;12.70;99.90
76120;DHT22;64852;48.092;-1.640;2023-11-19T07:06:53;12.60;99.90
76120;DHT22;64852;48.092;-1.640;2023-11-19T07:09:18;13.30;99.90
76120;DHT22;64852;48.092;-1.640;2023-11-19T07:11:44;12.60;99.90
76120;DHT22;64852;48.092;-1.640;2023-11-19T07:14:11;12.50;99.90
76120;DHT22;64852;48.092;-1.640;2023-11-19T07:16:36;13.20;99.90
76120;DHT22;64852;48.092;-1.640;2023-11-19T07:19:03;12.50;99.90
76120;DHT22;64852;48.092;-1.640;2023-11-19T07:21:28;12.50;99.90
76120;DHT22;64852;48.092;-1.640;2023-11-19T07:23:54;13.50;99.90
76120;DHT22;64852;48.092;-1.640;2023-11-19T07:26:20;12.60;99.90
76120;DHT22;64852;48.092;-1.640;2023-11-19T07:28:45;13.00;99.90
76120;DHT22;64852;48.092;-1.640;2023-11-19T07:31:11;12.80;99.90
76120;DHT22;64852;48.092;-1.640;2023-11-19T07:33:38;12.40;99.90
76120;DHT22;64852;48.092;-1.640;2023-11-19T07:36:04;12.40;99.90
76120;DHT22;64852;48.092;-1.640;2023-11-19T07:38:30;12.40;99.90
76120;DHT22;64852;48.092;-1.640;2023-11-19T07:40:55;12.40;99.90
76120;DHT22;64852;48.092;-1.640;2023-11-19T07:43:20;12.30;99.90
76120;DHT22;64852;48.092;-1.640;2023-11-19T07:45:46;12.30;99.90
76120;DHT22;64852;48.092;-1.640;2023-11-19T07:48:11;12.40;99.90
76120;DHT22;64852;48.092;-1.640;2023-11-19T07:50:39;12.70;99.90
76120;DHT22;64852;48.092;-1.640;2023-11-19T07:53:09;12.50;99.90
76120;DHT22;64852;48.092;-1.640;2023-11-19T07:55:34;12.30;99.90
76120;DHT22;64852;48.092;-1.640;2023-11-19T07:58:00;12.30;99.90
76120;DHT22;64852;48.092;-1.640;2023-11-19T08:00:25;12.50;99.90
76120;DHT22;64852;48.092;-1.640;2023-11-19T08:02:51;12.40;99.90
76120;DHT22;64852;48.092;-1.640;2023-11-19T08:05:16;12.40;99.90
76120;DHT22;64852;48.092;-1.640;2023-11-19T08:07:42;12.40;99.90
76120;DHT22;64852;48.092;-1.640;2023-11-19T08:10:07;12.40;99.90
76120;DHT22;64852;48.092;-1.640;2023-11-19T08:12:36;12.30;99.90
76120;DHT22;64852;48.092;-1.640;2023-11-19T08:15:02;13.20;99.90
76120;DHT22;64852;48.092;-1.640;2023-11-19T08:17:28;12.50;99.90
76120;DHT22;64852;48.092;-1.640;2023-11-19T08:19:53;12.60;99.90
76120;DHT22;64852;48.092;-1.640;2023-11-19T08:22:19;12.50;99.90
76120;DHT22;64852;48.092;-1.640;2023-11-19T08:24:44;13.10;99.90
76120;DHT22;64852;48.092;-1.640;2023-11-19T08:27:10;12.60;99.90
76120;DHT22;64852;48.092;-1.640;2023-11-19T08:29:35;12.50;99.90
76120;DHT22;64852;48.092;-1.640;2023-11-19T08:32:01;13.30;99.90
76120;DHT22;64852;48.092;-1.640;2023-11-19T08:34:28;13.40;99.90
76120;DHT22;64852;48.092;-1.640;2023-11-19T08:36:54;12.60;99.90
76120;DHT22;64852;48.092;-1.640;2023-11-19T08:39:19;12.70;99.90
76120;DHT22;64852;48.092;-1.640;2023-11-19T08:41:47;12.70;99.90
76120;DHT22;64852;48.092;-1.640;2023-11-19T08:44:13;12.80;99.90
76120;DHT22;64852;48.092;-1.640;2023-11-19T08:46:38;13.50;99.90
76120;DHT22;64852;48.092;-1.640;2023-11-19T08:49:05;12.90;99.90
76120;DHT22;64852;48.092;-1.640;2023-11-19T08:51:30;13.40;99.90
76120;DHT22;64852;48.092;-1.640;2023-11-19T08:53:56;12.80;99.90
76120;DHT22;64852;48.092;-1.640;2023-11-19T08:56:22;12.90;99.90
76120;DHT22;64852;48.092;-1.640;2023-11-19T08:58:48;13.40;99.90
76120;DHT22;64852;48.092;-1.640;2023-11-19T09:01:13;13.10;99.90
76120;DHT22;64852;48.092;-1.640;2023-11-19T09:03:39;13.00;99.90
76120;DHT22;64852;48.092;-1.640;2023-11-19T09:06:05;13.50;99.90
76120;DHT22;64852;48.092;-1.640;2023-11-19T09:08:31;13.10;99.90
76120;DHT22;64852;48.092;-1.640;2023-11-19T09:10:56;13.00;99.90
76120;DHT22;64852;48.092;-1.640;2023-11-19T09:13:22;13.50;99.90
76120;DHT22;64852;48.092;-1.640;2023-11-19T09:15:48;13.40;99.90
76120;DHT22;64852;48.092;-1.640;2023-11-19T09:18:13;13.20;99.90
76120;DHT22;64852;48.092;-1.640;2023-11-19T09:20:39;14.00;99.90
76120;DHT22;64852;48.092;-1.640;2023-11-19T09:23:05;14.10;99.90
76120;DHT22;64852;48.092;-1.640;2023-11-19T09:25:31;13.30;99.90
76120;DHT22;64852;48.092;-1.640;2023-11-19T09:27:56;13.60;99.90
76120;DHT22;64852;48.092;-1.640;2023-11-19T09:30:22;13.80;99.90
76120;DHT22;64852;48.092;-1.640;2023-11-19T09:32:48;13.40;99.90
76120;DHT22;64852;48.092;-1.640;2023-11-19T09:35:13;13.60;99.90
76120;DHT22;64852;48.092;-1.640;2023-11-19T09:37:40;13.40;99.90
76120;DHT22;64852;48.092;-1.640;2023-11-19T09:40:05;13.50;99.90
76120;DHT22;64852;48.092;-1.640;2023-11-19T09:42:39;13.50;99.90
76120;DHT22;64852;48.092;-1.640;2023-11-19T09:45:08;13.70;99.90
76120;DHT22;64852;48.092;-1.640;2023-11-19T09:47:38;13.60;99.90
76120;DHT22;64852;48.092;-1.640;2023-11-19T09:50:03;13.60;99.90
76120;DHT22;64852;48.092;-1.640;2023-11-19T09:52:30;13.60;99.90
76120;DHT22;64852;48.092;-1.640;2023-11-19T09:54:56;14.40;99.90
76120;DHT22;64852;48.092;-1.640;2023-11-19T09:57:21;14.30;99.90
76120;DHT22;64852;48.092;-1.640;2023-11-19T09:59:47;14.20;99.90
76120;DHT22;64852;48.092;-1.640;2023-11-19T10:02:13;14.30;99.90
76120;DHT22;64852;48.092;-1.640;2023-11-19T10:04:39;13.80;99.90
76120;DHT22;64852;48.092;-1.640;2023-11-19T10:07:05;14.60;99.90
76120;DHT22;64852;48.092;-1.640;2023-11-19T10:09:31;14.00;99.90
76120;DHT22;64852;48.092;-1.640;2023-11-19T10:11:56;14.20;99.90
76120;DHT22;64852;48.092;-1.640;2023-11-19T10:14:23;14.10;99.90
76120;DHT22;64852;48.092;-1.640;2023-11-19T10:16:49;14.20;99.90
76120;DHT22;64852;48.092;-1.640;2023-11-19T10:19:20;15.20;99.90
76120;DHT22;64852;48.092;-1.640;2023-11-19T10:21:46;14.10;99.90
76120;DHT22;64852;48.092;-1.640;2023-11-19T10:24:12;14.40;99.90
76120;DHT22;64852;48.092;-1.640;2023-11-19T10:26:38;14.40;99.90
76120;DHT22;64852;48.092;-1.640;2023-11-19T10:29:03;14.40;99.90
76120;DHT22;64852;48.092;-1.640;2023-11-19T10:31:29;14.40;99.90
76120;DHT22;64852;48.092;-1.640;2023-11-19T10:33:55;15.00;99.90
76120;DHT22;64852;48.092;-1.640;2023-11-19T10:36:21;14.40;99.90
76120;DHT22;64852;48.092;-1.640;2023-11-19T10:38:52;15.40;99.90
76120;DHT22;64852;48.092;-1.640;2023-11-19T10:41:31;14.60;99.90
76120;DHT22;64852;48.092;-1.640;2023-11-19T10:43:57;14.70;99.90
76120;DHT22;64852;48.092;-1.640;2023-11-19T10:46:23;14.90;99.90
76120;DHT22;64852;48.092;-1.640;2023-11-19T10:49:01;15.60;99.90
76120;DHT22;64852;48.092;-1.640;2023-11-19T10:51:27;15.00;99.90
76120;DHT22;64852;48.092;-1.640;2023-11-19T10:53:59;14.90;99.90
76120;DHT22;64852;48.092;-1.640;2023-11-19T10:56:30;14.90;99.90
76120;DHT22;64852;48.092;-1.640;2023-11-19T10:58:56;15.40;99.90
76120;DHT22;64852;48.092;-1.640;2023-11-19T11:01:27;14.90;99.90
76120;DHT22;64852;48.092;-1.640;2023-11-19T11:03:59;15.10;99.90
76120;DHT22;64852;48.092;-1.640;2023-11-19T11:06:27;15.20;99.90
76120;DHT22;64852;48.092;-1.640;2023-11-19T11:08:53;15.20;99.90
76120;DHT22;64852;48.092;-1.640;2023-11-19T11:11:19;15.10;99.90
76120;DHT22;64852;48.092;-1.640;2023-11-19T11:13:50;15.20;99.90
76120;DHT22;64852;48.092;-1.640;2023-11-19T11:16:19;15.30;99.90
76120;DHT22;64852;48.092;-1.640;2023-11-19T11:18:47;15.40;99.90
76120;DHT22;64852;48.092;-1.640;2023-11-19T11:21:21;15.70;99.90
76120;DHT22;64852;48.092;-1.640;2023-11-19T11:24:16;15.50;99.90
76120;DHT22;64852;48.092;-1.640;2023-11-19T11:32:33;15.60;99.90
76120;DHT22;64852;48.092;-1.640;2023-11-19T11:37:46;15.50;99.90
76120;DHT22;64852;48.092;-1.640;2023-11-19T11:40:17;15.60;99.90
76120;DHT22;64852;48.092;-1.640;2023-11-19T11:42:44;15.50;99.90
76120;DHT22;64852;48.092;-1.640;2023-11-19T11:45:11;15.70;99.90
76120;DHT22;64852;48.092;-1.640;2023-11-19T11:50:14;16.90;99.90
76120;DHT22;64852;48.092;-1.640;2023-11-19T11:55:28;16.40;99.90
76120;DHT22;64852;48.092;-1.640;2023-11-19T11:57:55;16.40;99.90
76120;DHT22;64852;48.092;-1.640;2023-11-19T12:00:31;16.40;99.90
76120;DHT22;64852;48.092;-1.640;2023-11-19T12:02:58;16.20;99.90
76120;DHT22;64852;48.092;-1.640;2023-11-19T12:05:24;16.90;99.90
76120;DHT22;64852;48.092;-1.640;2023-11-19T12:07:57;16.10;99.90
76120;DHT22;64852;48.092;-1.640;2023-11-19T12:10:25;16.00;99.90
76120;DHT22;64852;48.092;-1.640;2023-11-19T12:12:58;16.00;99.90
76120;DHT22;64852;48.092;-1.640;2023-11-19T12:15:24;16.10;99.90
76120;DHT22;64852;48.092;-1.640;2023-11-19T12:17:52;16.20;99.90
76120;DHT22;64852;48.092;-1.640;2023-11-19T12:20:19;16.50;99.90
76120;DHT22;64852;48.092;-1.640;2023-11-19T12:22:47;16.50;99.90
76120;DHT22;64852;48.092;-1.640;2023-11-19T12:25:15;16.80;99.90
76120;DHT22;64852;48.092;-1.640;2023-11-19T12:27:51;17.50;99.90
76120;DHT22;64852;48.092;-1.640;2023-11-19T12:30:27;16.40;99.90
76120;DHT22;64852;48.092;-1.640;2023-11-19T12:32:54;16.40;99.90
76120;DHT22;64852;48.092;-1.640;2023-11-19T12:35:20;16.20;99.90
76120;DHT22;64852;48.092;-1.640;2023-11-19T12:37:48;16.00;99.90
76120;DHT22;64852;48.092;-1.640;2023-11-19T12:40:19;15.80;99.90
76120;DHT22;64852;48.092;-1.640;2023-11-19T12:42:45;15.80;99.90
76120;DHT22;64852;48.092;-1.640;2023-11-19T12:45:11;16.40;99.90
76120;DHT22;64852;48.092;-1.640;2023-11-19T12:47:38;16.70;99.90
76120;DHT22;64852;48.092;-1.640;2023-11-19T12:50:05;17.10;99.90
76120;DHT22;64852;48.092;-1.640;2023-11-19T12:52:30;17.50;99.90
76120;DHT22;64852;48.092;-1.640;2023-11-19T12:54:57;17.60;99.90
76120;DHT22;64852;48.092;-1.640;2023-11-19T12:57:42;17.20;99.90
76120;DHT22;64852;48.092;-1.640;2023-11-19T13:00:18;16.90;99.90
76120;DHT22;64852;48.092;-1.640;2023-11-19T13:10:24;16.40;99.90
76120;DHT22;64852;48.092;-1.640;2023-11-19T13:13:20;16.40;99.90
76120;DHT22;64852;48.092;-1.640;2023-11-19T13:15:46;16.40;99.90
76120;DHT22;64852;48.092;-1.640;2023-11-19T13:18:12;16.60;99.90
76120;DHT22;64852;48.092;-1.640;2023-11-19T13:20:39;16.50;99.90
76120;DHT22;64852;48.092;-1.640;2023-11-19T13:23:06;16.40;99.90
76120;DHT22;64852;48.092;-1.640;2023-11-19T13:25:36;16.30;99.90
76120;DHT22;64852;48.092;-1.640;2023-11-19T13:28:01;16.40;99.90
76120;DHT22;64852;48.092;-1.640;2023-11-19T13:30:27;16.40;99.90
76120;DHT22;64852;48.092;-1.640;2023-11-19T13:32:54;16.50;99.90
76120;DHT22;64852;48.092;-1.640;2023-11-19T13:35:20;16.60;99.90
76120;DHT22;64852;48.092;-1.640;2023-11-19T13:37:46;16.70;99.90
76120;DHT22;64852;48.092;-1.640;2023-11-19T13:40:12;16.70;99.90
76120;DHT22;64852;48.092;-1.640;2023-11-19T13:42:42;16.70;99.90
76120;DHT22;64852;48.092;-1.640;2023-11-19T13:45:12;16.90;99.90
76120;DHT22;64852;48.092;-1.640;2023-11-19T13:47:39;16.60;99.90
76120;DHT22;64852;48.092;-1.640;2023-11-19T13:50:10;16.60;99.90
76120;DHT22;64852;48.092;-1.640;2023-11-19T13:52:37;16.60;99.90
76120;DHT22;64852;48.092;-1.640;2023-11-19T13:55:08;16.90;99.90
76120;DHT22;64852;48.092;-1.640;2023-11-19T13:57:34;16.80;99.90
76120;DHT22;64852;48.092;-1.640;2023-11-19T14:00:01;16.90;99.90
76120;DHT22;64852;48.092;-1.640;2023-11-19T14:02:30;17.10;99.90
76120;DHT22;64852;48.092;-1.640;2023-11-19T14:04:56;16.90;99.90
76120;DHT22;64852;48.092;-1.640;2023-11-19T14:07:21;16.90;99.90
76120;DHT22;64852;48.092;-1.640;2023-11-19T14:09:47;16.60;99.90
76120;DHT22;64852;48.092;-1.640;2023-11-19T14:12:12;17.00;99.90
76120;DHT22;64852;48.092;-1.640;2023-11-19T14:14:38;16.70;99.90
76120;DHT22;64852;48.092;-1.640;2023-11-19T14:17:04;16.90;99.90
76120;DHT22;64852;48.092;-1.640;2023-11-19T14:19:30;17.00;99.90
76120;DHT22;64852;48.092;-1.640;2023-11-19T14:21:56;16.90;99.90
76120;DHT22;64852;48.092;-1.640;2023-11-19T14:24:21;16.90;99.90
76120;DHT22;64852;48.092;-1.640;2023-11-19T14:26:47;16.80;99.90
76120;DHT22;64852;48.092;-1.640;2023-11-19T14:29:14;16.70;99.90
76120;DHT22;64852;48.092;-1.640;2023-11-19T14:31:39;16.80;99.90
76120;DHT22;64852;48.092;-1.640;2023-11-19T14:34:05;16.70;99.90
76120;DHT22;64852;48.092;-1.640;2023-11-19T14:36:31;17.20;99.90
76120;DHT22;64852;48.092;-1.640;2023-11-19T14:38:56;16.40;99.90
76120;DHT22;64852;48.092;-1.640;2023-11-19T14:41:24;16.50;99.90
76120;DHT22;64852;48.092;-1.640;2023-11-19T14:43:50;16.40;99.90
76120;DHT22;64852;48.092;-1.640;2023-11-19T14:46:15;17.20;99.90
76120;DHT22;64852;48.092;-1.640;2023-11-19T14:48:41;16.40;99.90
76120;DHT22;64852;48.092;-1.640;2023-11-19T14:51:07;16.40;99.90
76120;DHT22;64852;48.092;-1.640;2023-11-19T14:53:32;16.90;99.90
76120;DHT22;64852;48.092;-1.640;2023-11-19T14:55:58;16.30;99.90
76120;DHT22;64852;48.092;-1.640;2023-11-19T14:58:24;16.50;99.90
76120;DHT22;64852;48.092;-1.640;2023-11-19T15:00:51;16.70;99.90
76120;DHT22;64852;48.092;-1.640;2023-11-19T15:03:17;16.90;99.90
76120;DHT22;64852;48.092;-1.640;2023-11-19T15:05:45;16.40;99.90
76120;DHT22;64852;48.092;-1.640;2023-11-19T15:08:14;16.30;99.90
76120;DHT22;64852;48.092;-1.640;2023-11-19T15:10:42;16.30;99.90
76120;DHT22;64852;48.092;-1.640;2023-11-19T15:13:07;16.60;99.90
76120;DHT22;64852;48.092;-1.640;2023-11-19T15:15:34;16.80;99.90
76120;DHT22;64852;48.092;-1.640;2023-11-19T15:18:00;16.50;99.90
76120;DHT22;64852;48.092;-1.640;2023-11-19T15:20:26;16.10;99.90
76120;DHT22;64852;48.092;-1.640;2023-11-19T15:22:55;15.80;99.90
76120;DHT22;64852;48.092;-1.640;2023-11-19T15:25:21;16.40;99.90
76120;DHT22;64852;48.092;-1.640;2023-11-19T15:27:48;16.70;99.90
76120;DHT22;64852;48.092;-1.640;2023-11-19T15:30:14;15.80;99.90
76120;DHT22;64852;48.092;-1.640;2023-11-19T15:32:41;15.70;99.90